createdAt,value
2018-07-07T00:01:22.489Z,3.43
2018-07-07T00:03:50.567Z,4.10
2018-07-07T00:06:18.691Z,5.00
2018-07-07T00:08:46.789Z,5.13
2018-07-07T00:11:14.860Z,3.97
2018-07-07T00:13:43.031Z,6.80
2018-07-07T00:16:11.153Z,4.27
2018-07-07T00:18:39.225Z,5.83
2018-07-07T00:21:07.466Z,5.60
2018-07-07T00:23:35.594Z,4.77
2018-07-07T00:26:03.800Z,5.50
2018-07-07T00:28:32.062Z,3.67
2018-07-07T00:31:00.235Z,6.47
2018-07-07T00:33:28.378Z,5.20
2018-07-07T00:35:56.546Z,4.40
2018-07-07T00:38:24.738Z,4.73
2018-07-07T00:40:52.849Z,5.30
2018-07-07T00:43:20.900Z,3.73
2018-07-07T00:45:49.117Z,6.27
2018-07-07T00:48:17.231Z,4.93
2018-07-07T00:50:45.429Z,3.30
2018-07-07T00:53:13.610Z,4.37
2018-07-07T00:55:41.688Z,5.03
2018-07-07T00:58:10.012Z,6.40
2018-07-07T01:00:43.743Z,4.67
2018-07-07T01:03:11.831Z,8.57
2018-07-07T01:05:39.963Z,5.30
2018-07-07T01:08:08.126Z,3.30
2018-07-07T01:10:36.338Z,4.27
2018-07-07T01:13:04.430Z,3.93
2018-07-07T01:15:32.616Z,3.87
2018-07-07T01:18:00.686Z,5.37
2018-07-07T01:20:28.747Z,5.23
2018-07-07T01:22:56.918Z,3.80
2018-07-07T01:25:25.094Z,7.90
2018-07-07T01:27:53.184Z,3.53
2018-07-07T01:30:21.253Z,4.00
2018-07-07T01:32:49.407Z,3.60
2018-07-07T01:35:17.489Z,4.33
2018-07-07T01:37:45.705Z,3.13
2018-07-07T01:40:13.751Z,4.20
2018-07-07T01:42:41.811Z,5.53
2018-07-07T01:45:10.092Z,4.87
2018-07-07T01:47:38.173Z,2.93
2018-07-07T01:50:06.443Z,4.47
2018-07-07T01:52:34.964Z,4.67
2018-07-07T01:55:03.008Z,4.00
2018-07-07T01:57:31.219Z,2.63
2018-07-07T01:59:59.430Z,3.37
2018-07-07T02:02:27.602Z,2.97
2018-07-07T02:04:55.771Z,4.23
2018-07-07T02:07:24.047Z,4.37
2018-07-07T02:09:52.112Z,4.27
2018-07-07T02:12:20.243Z,4.20
2018-07-07T02:14:48.318Z,4.27
2018-07-07T02:17:16.384Z,3.07
2018-07-07T02:19:44.505Z,2.47
2018-07-07T02:22:16.856Z,4.70
2018-07-07T02:24:45.001Z,4.03
2018-07-07T02:27:13.107Z,4.13
2018-07-07T02:29:41.432Z,6.77
2018-07-07T02:32:09.487Z,4.40
2018-07-07T02:34:37.559Z,5.40
2018-07-07T02:37:05.798Z,5.13
2018-07-07T02:39:33.900Z,5.10
2018-07-07T02:42:02.063Z,6.23
2018-07-07T02:44:30.161Z,3.37
2018-07-07T02:46:58.412Z,5.70
2018-07-07T02:49:26.579Z,2.97
2018-07-07T02:51:54.882Z,7.57
2018-07-07T02:54:23.036Z,3.73
2018-07-07T02:56:51.237Z,3.87
2018-07-07T02:59:19.303Z,3.67
2018-07-07T03:01:47.488Z,4.47
2018-07-07T03:04:15.554Z,3.10
2018-07-07T03:06:43.735Z,4.40
2018-07-07T03:09:11.799Z,4.00
2018-07-07T03:11:40.885Z,3.87
2018-07-07T03:14:08.980Z,5.03
2018-07-07T03:16:37.134Z,5.53
2018-07-07T03:19:05.219Z,6.43
2018-07-07T03:21:33.501Z,4.90
2018-07-07T03:24:01.730Z,4.20
2018-07-07T03:26:29.886Z,3.43
2018-07-07T03:28:58.127Z,3.17
2018-07-07T03:31:26.186Z,4.53
2018-07-07T03:33:54.303Z,4.27
2018-07-07T03:36:22.358Z,4.10
2018-07-07T03:38:50.511Z,4.20
2018-07-07T03:41:18.613Z,4.13
2018-07-07T03:43:46.787Z,5.90
2018-07-07T03:46:14.919Z,3.90
2018-07-07T03:48:43.287Z,4.07
2018-07-07T03:51:11.458Z,3.83
2018-07-07T03:53:40.260Z,3.40
2018-07-07T03:56:08.348Z,4.30
2018-07-07T03:58:36.475Z,5.00
2018-07-07T04:01:04.576Z,3.90
2018-07-07T04:03:32.750Z,6.83
2018-07-07T04:06:00.819Z,6.97
2018-07-07T04:08:28.881Z,3.80
2018-07-07T04:10:57.102Z,4.63
2018-07-07T04:13:25.238Z,3.00
2018-07-07T04:15:53.519Z,3.60
2018-07-07T04:18:28.480Z,4.67
2018-07-07T04:20:56.686Z,4.33
2018-07-07T04:23:24.802Z,4.43
2018-07-07T04:25:53.022Z,6.07
2018-07-07T04:28:21.098Z,4.83
2018-07-07T04:30:49.327Z,3.50
2018-07-07T04:33:17.870Z,5.70
2018-07-07T04:35:47.075Z,2.93
2018-07-07T04:38:15.182Z,3.60
2018-07-07T04:40:43.364Z,4.20
2018-07-07T04:43:11.426Z,5.67
2018-07-07T04:45:39.498Z,4.57
2018-07-07T04:48:07.777Z,2.70
2018-07-07T04:50:36.154Z,5.60
2018-07-07T04:53:04.587Z,3.90
2018-07-07T04:55:32.711Z,4.07
2018-07-07T04:58:00.936Z,5.07
2018-07-07T05:00:29.250Z,5.00
2018-07-07T05:02:57.918Z,5.50
2018-07-07T05:05:26.008Z,3.30
2018-07-07T05:07:54.190Z,4.87
2018-07-07T05:10:22.570Z,6.50
2018-07-07T05:12:51.146Z,4.30
2018-07-07T05:15:19.314Z,5.93
2018-07-07T05:17:47.398Z,3.77
2018-07-07T05:20:15.468Z,4.80
2018-07-07T05:22:43.571Z,3.43
2018-07-07T05:25:11.771Z,3.33
2018-07-07T05:27:39.846Z,4.03
2018-07-07T05:30:08.028Z,5.83
2018-07-07T05:32:36.422Z,3.30
2018-07-07T05:35:04.574Z,2.40
2018-07-07T05:37:32.691Z,7.93
2018-07-07T05:40:00.862Z,2.43
2018-07-07T05:42:29.093Z,3.03
2018-07-07T05:44:57.256Z,4.93
2018-07-07T05:47:25.387Z,4.67
2018-07-07T05:49:53.565Z,5.43
2018-07-07T05:52:22.282Z,4.17
2018-07-07T05:54:50.361Z,4.30
2018-07-07T05:57:18.477Z,4.83
2018-07-07T05:59:46.502Z,5.90
2018-07-07T06:02:14.575Z,5.63
2018-07-07T06:04:42.694Z,6.90
2018-07-07T06:07:10.778Z,5.27
2018-07-07T06:09:38.950Z,2.67
2018-07-07T06:12:07.140Z,3.90
2018-07-07T06:14:35.403Z,2.93
2018-07-07T06:17:03.471Z,3.03
2018-07-07T06:19:31.543Z,3.90
2018-07-07T06:21:59.816Z,5.50
2018-07-07T06:24:28.023Z,3.60
2018-07-07T06:26:56.305Z,3.27
2018-07-07T06:29:24.364Z,3.60
2018-07-07T06:31:53.093Z,5.33
2018-07-07T06:34:21.146Z,2.47
2018-07-07T06:36:49.554Z,4.20
2018-07-07T06:39:17.774Z,5.30
2018-07-07T06:41:45.922Z,2.93
2018-07-07T06:44:14.387Z,3.37
2018-07-07T06:46:42.617Z,4.60
2018-07-07T06:49:10.775Z,4.50
2018-07-07T06:51:39.895Z,3.27
2018-07-07T06:54:08.061Z,4.37
2018-07-07T06:56:36.060Z,4.90
2018-07-07T06:59:04.355Z,6.23
2018-07-07T07:01:32.696Z,4.23
2018-07-07T07:04:00.766Z,3.07
2018-07-07T07:06:29.054Z,3.60
2018-07-07T07:08:57.183Z,3.33
2018-07-07T07:11:25.278Z,2.93
2018-07-07T07:13:53.359Z,3.97
2018-07-07T07:16:21.440Z,5.83
2018-07-07T07:18:49.674Z,3.10
2018-07-07T07:21:17.922Z,4.03
2018-07-07T07:23:46.049Z,2.27
2018-07-07T07:26:14.149Z,4.43
2018-07-07T07:28:42.242Z,7.27
2018-07-07T07:31:10.347Z,4.67
2018-07-07T07:33:38.432Z,5.10
2018-07-07T07:36:08.045Z,5.47
2018-07-07T07:38:36.298Z,8.23
2018-07-07T07:41:04.505Z,9.43
2018-07-07T07:43:32.737Z,6.30
2018-07-07T07:46:00.941Z,7.83
2018-07-07T07:48:29.218Z,6.80
2018-07-07T07:51:01.758Z,6.73
2018-07-07T07:53:29.838Z,7.73
2018-07-07T07:55:57.925Z,7.13
2018-07-07T07:58:26.055Z,5.57
2018-07-07T08:00:54.163Z,6.87
2018-07-07T08:03:22.226Z,5.73
2018-07-07T08:05:50.310Z,5.90
2018-07-07T08:08:18.374Z,5.13
2018-07-07T08:10:46.467Z,5.10
2018-07-07T08:13:14.551Z,5.20
2018-07-07T08:15:42.623Z,3.50
2018-07-07T08:18:10.802Z,3.87
2018-07-07T08:20:38.935Z,2.80
2018-07-07T08:23:06.998Z,5.30
2018-07-07T08:25:35.163Z,3.90
2018-07-07T08:28:03.246Z,5.80
2018-07-07T08:30:31.463Z,3.67
2018-07-07T08:32:59.510Z,4.10
2018-07-07T08:35:27.597Z,6.13
2018-07-07T08:37:55.737Z,4.27
2018-07-07T08:40:23.821Z,4.53
2018-07-07T08:42:51.910Z,6.63
2018-07-07T08:45:19.995Z,5.40
2018-07-07T08:47:48.070Z,3.23
2018-07-07T08:50:16.310Z,3.13
2018-07-07T08:52:44.383Z,4.80
2018-07-07T08:55:12.611Z,9.40
2018-07-07T08:57:40.683Z,15.27
2018-07-07T09:00:08.847Z,6.77
2018-07-07T09:02:36.988Z,4.13
2018-07-07T09:05:05.064Z,5.03
2018-07-07T09:07:33.151Z,3.07
2018-07-07T09:10:01.310Z,5.47
2018-07-07T09:12:29.400Z,4.57
2018-07-07T09:14:57.462Z,3.30
2018-07-07T09:17:25.598Z,3.67
2018-07-07T09:19:53.690Z,2.30
2018-07-07T09:22:21.774Z,3.60
2018-07-07T09:24:49.915Z,6.07
2018-07-07T09:27:18.207Z,3.30
2018-07-07T09:29:46.279Z,6.07
2018-07-07T09:32:14.368Z,5.33
2018-07-07T09:34:42.475Z,5.63
2018-07-07T09:37:11.150Z,3.23
2018-07-07T09:39:39.203Z,4.80
2018-07-07T09:42:07.271Z,8.00
2018-07-07T09:44:35.393Z,7.27
2018-07-07T09:47:03.670Z,5.37
2018-07-07T09:49:31.762Z,4.90
2018-07-07T09:51:59.917Z,4.40
2018-07-07T09:54:28.232Z,2.53
2018-07-07T09:56:56.340Z,4.17
2018-07-07T09:59:24.432Z,4.67
2018-07-07T10:01:52.559Z,4.80
2018-07-07T10:04:20.613Z,3.90
2018-07-07T10:06:48.857Z,2.87
2018-07-07T10:09:17.360Z,6.77
2018-07-07T10:11:45.430Z,6.00
2018-07-07T10:14:13.645Z,4.37
2018-07-07T10:16:41.779Z,5.30
2018-07-07T10:19:09.835Z,4.27
2018-07-07T10:21:37.993Z,4.20
2018-07-07T10:24:06.124Z,3.00
2018-07-07T10:26:34.298Z,5.70
2018-07-07T10:29:02.499Z,4.43
2018-07-07T10:31:30.610Z,3.77
2018-07-07T10:33:58.910Z,7.00
2018-07-07T10:36:26.983Z,8.93
2018-07-07T10:38:55.267Z,4.50
2018-07-07T10:41:23.346Z,6.00
2018-07-07T10:43:52.053Z,4.70
2018-07-07T10:46:20.171Z,4.40
2018-07-07T10:48:48.290Z,6.17
2018-07-07T10:51:16.370Z,6.43
2018-07-07T10:53:44.510Z,4.97
2018-07-07T10:56:12.678Z,4.07
2018-07-07T10:58:40.804Z,5.60
2018-07-07T11:01:08.842Z,4.73
2018-07-07T11:03:37.014Z,3.43
2018-07-07T11:06:05.091Z,3.60
2018-07-07T11:08:33.252Z,4.87
2018-07-07T11:11:01.439Z,3.70
2018-07-07T11:13:29.518Z,2.23
2018-07-07T11:15:57.582Z,2.53
2018-07-07T11:18:25.668Z,4.70
2018-07-07T11:20:54.526Z,5.10
2018-07-07T11:23:22.601Z,3.40
2018-07-07T11:25:50.698Z,5.23
2018-07-07T11:28:18.809Z,3.53
2018-07-07T11:30:46.960Z,2.97
2018-07-07T11:33:15.199Z,4.67
2018-07-07T11:35:43.283Z,4.73
2018-07-07T11:38:11.443Z,3.23
2018-07-07T11:40:39.602Z,5.00
2018-07-07T11:43:07.736Z,4.33
2018-07-07T11:45:35.950Z,4.07
2018-07-07T11:48:04.046Z,2.33
2018-07-07T11:50:32.146Z,2.77
2018-07-07T11:53:00.216Z,4.60
2018-07-07T11:55:28.337Z,3.60
2018-07-07T11:57:56.410Z,1.50
2018-07-07T12:00:24.515Z,2.70
2018-07-07T12:02:52.580Z,3.50
2018-07-07T12:05:20.650Z,3.87
2018-07-07T12:08:00.711Z,3.17
2018-07-07T12:10:16.988Z,3.83
2018-07-07T12:12:45.067Z,3.77
2018-07-07T12:15:13.312Z,3.30
2018-07-07T12:17:41.452Z,3.20
2018-07-07T12:20:09.523Z,4.17
2018-07-07T12:22:37.950Z,2.93
2018-07-07T12:25:06.081Z,4.17
2018-07-07T12:27:34.176Z,4.30
2018-07-07T12:30:02.340Z,4.23
2018-07-07T12:32:30.496Z,3.40
2018-07-07T12:34:58.554Z,5.03
2018-07-07T12:37:26.633Z,5.13
2018-07-07T12:39:54.704Z,2.93
2018-07-07T12:42:22.835Z,1.77
2018-07-07T12:44:51.010Z,3.43
2018-07-07T12:47:19.066Z,3.83
2018-07-07T12:49:47.191Z,3.27
2018-07-07T12:52:15.270Z,2.23
2018-07-07T12:54:43.349Z,2.87
2018-07-07T12:57:11.476Z,3.00
2018-07-07T12:59:39.537Z,3.20
2018-07-07T13:02:07.666Z,2.00
2018-07-07T13:04:35.733Z,3.37
2018-07-07T13:07:03.897Z,2.50
2018-07-07T13:09:32.046Z,2.90
2018-07-07T13:12:00.223Z,5.57
2018-07-07T13:14:28.303Z,6.47
2018-07-07T13:16:56.374Z,3.00
2018-07-07T13:19:24.562Z,2.67
2018-07-07T13:21:52.829Z,1.73
2018-07-07T13:24:21.114Z,2.03
2018-07-07T13:26:49.301Z,2.50
2018-07-07T13:29:17.486Z,2.43
2018-07-07T13:31:45.591Z,2.93
2018-07-07T13:34:13.855Z,3.20
2018-07-07T13:36:41.933Z,4.33
2018-07-07T13:39:10.206Z,6.73
2018-07-07T13:41:38.274Z,3.13
2018-07-07T13:44:06.566Z,2.93
2018-07-07T13:46:34.650Z,3.00
2018-07-07T13:49:02.922Z,3.23
2018-07-07T13:51:30.997Z,2.57
2018-07-07T13:53:59.187Z,4.47
2018-07-07T13:56:27.341Z,1.70
2018-07-07T13:58:55.404Z,3.73
2018-07-07T14:01:23.530Z,4.83
2018-07-07T14:03:51.591Z,4.03
2018-07-07T14:06:19.651Z,2.30
2018-07-07T14:08:47.740Z,2.20
2018-07-07T14:11:15.825Z,2.43
2018-07-07T14:13:43.942Z,3.20
2018-07-07T14:16:12.032Z,1.63
2018-07-07T14:18:40.193Z,4.27
2018-07-07T14:21:08.274Z,3.00
2018-07-07T14:23:36.479Z,2.10
2018-07-07T14:26:04.514Z,2.43
2018-07-07T14:28:32.593Z,1.93
2018-07-07T14:31:00.831Z,3.20
2018-07-07T14:33:28.896Z,3.30
2018-07-07T14:35:57.143Z,3.43
2018-07-07T14:38:30.134Z,2.20
2018-07-07T14:41:03.828Z,2.93
2018-07-07T14:43:37.851Z,1.90
2018-07-07T14:46:06.230Z,2.60
2018-07-07T14:48:34.403Z,2.30
2018-07-07T14:51:02.515Z,2.57
2018-07-07T14:53:30.615Z,3.07
2018-07-07T14:55:58.692Z,1.30
2018-07-07T14:58:26.895Z,2.07
2018-07-07T15:00:55.047Z,2.83
2018-07-07T15:03:23.127Z,2.17
2018-07-07T15:05:51.193Z,2.10
2018-07-07T15:08:19.352Z,1.73
2018-07-07T15:10:47.564Z,1.33
2018-07-07T15:13:15.768Z,1.37
2018-07-07T15:15:43.811Z,2.97
2018-07-07T15:18:11.915Z,2.63
2018-07-07T15:20:40.709Z,4.53
2018-07-07T15:23:08.802Z,3.23
2018-07-07T15:25:36.991Z,2.90
2018-07-07T15:28:05.110Z,1.67
2018-07-07T15:30:33.316Z,4.83
2018-07-07T15:33:01.406Z,4.63
2018-07-07T15:35:29.564Z,4.33
2018-07-07T15:37:57.680Z,3.03
2018-07-07T15:40:25.957Z,6.73
2018-07-07T15:42:54.047Z,5.83
2018-07-07T15:45:22.123Z,6.13
2018-07-07T15:47:50.304Z,5.80
2018-07-07T15:50:18.362Z,3.93
2018-07-07T15:52:46.825Z,3.30
2018-07-07T15:55:14.975Z,2.30
2018-07-07T15:57:43.038Z,3.50
2018-07-07T16:00:12.034Z,3.60
2018-07-07T16:02:41.117Z,3.73
2018-07-07T16:05:09.346Z,3.33
2018-07-07T16:07:37.427Z,6.67
2018-07-07T16:10:05.667Z,7.13
2018-07-07T16:12:33.742Z,6.73
2018-07-07T16:15:01.812Z,5.90
2018-07-07T16:17:29.954Z,6.20
2018-07-07T16:19:58.046Z,5.80
2018-07-07T16:22:26.155Z,4.87
2018-07-07T16:24:54.248Z,4.53
2018-07-07T16:27:22.399Z,4.50
2018-07-07T16:29:51.428Z,5.17
2018-07-07T16:32:19.709Z,6.90
2018-07-07T16:34:47.906Z,13.30
2018-07-07T16:37:15.999Z,23.70
2018-07-07T16:39:44.148Z,18.37
2018-07-07T16:42:12.368Z,13.07
2018-07-07T16:44:40.466Z,10.23
2018-07-07T16:47:08.725Z,8.63
2018-07-07T16:49:36.940Z,10.00
2018-07-07T16:52:05.016Z,9.33
2018-07-07T16:54:33.070Z,11.57
2018-07-07T16:57:01.426Z,8.43
2018-07-07T16:59:32.046Z,11.20
2018-07-07T17:02:00.159Z,11.60
2018-07-07T17:04:28.383Z,8.03
2018-07-07T17:06:56.555Z,9.50
2018-07-07T17:09:24.801Z,9.00
2018-07-07T17:11:53.095Z,8.83
2018-07-07T17:14:21.911Z,7.20
2018-07-07T17:16:50.214Z,7.50
2018-07-07T17:19:18.323Z,6.40
2018-07-07T17:21:46.736Z,6.47
2018-07-07T17:24:15.702Z,6.73
2018-07-07T17:26:44.718Z,7.37
2018-07-07T17:29:12.863Z,7.47
2018-07-07T17:31:41.313Z,7.47
2018-07-07T17:34:09.448Z,6.43
2018-07-07T17:36:37.533Z,5.30
2018-07-07T17:39:05.839Z,4.90
2018-07-07T17:41:33.889Z,5.17
2018-07-07T17:44:02.075Z,7.30
2018-07-07T17:46:30.137Z,6.17
2018-07-07T17:48:58.442Z,5.17
2018-07-07T17:51:26.988Z,6.47
2018-07-07T17:53:56.313Z,5.87
2018-07-07T17:56:24.603Z,6.73
2018-07-07T17:58:52.763Z,5.37
2018-07-07T18:01:21.240Z,4.87
2018-07-07T18:03:49.279Z,5.67
2018-07-07T18:06:17.812Z,3.60
2018-07-07T18:08:45.919Z,5.20
2018-07-07T18:11:14.036Z,5.97
2018-07-07T18:13:42.111Z,5.77
2018-07-07T18:16:10.222Z,4.43
2018-07-07T18:18:38.303Z,5.47
2018-07-07T18:21:06.468Z,4.00
2018-07-07T18:23:34.644Z,3.53
2018-07-07T18:26:02.729Z,4.87
2018-07-07T18:28:30.893Z,3.90
2018-07-07T18:30:59.137Z,3.47
2018-07-07T18:33:27.155Z,4.57
2018-07-07T18:35:55.407Z,3.10
2018-07-07T18:38:23.583Z,4.03
2018-07-07T18:40:51.576Z,3.90
2018-07-07T18:43:19.786Z,3.53
2018-07-07T18:45:47.833Z,3.93
2018-07-07T18:48:16.082Z,4.03
2018-07-07T18:50:44.378Z,5.03
2018-07-07T18:53:12.510Z,5.13
2018-07-07T18:55:40.587Z,3.93
2018-07-07T18:58:08.837Z,3.00
2018-07-07T19:00:45.988Z,3.90
2018-07-07T19:03:15.473Z,7.37
2018-07-07T19:05:47.802Z,4.93
2018-07-07T19:08:19.906Z,4.13
2018-07-07T19:10:48.028Z,3.53
2018-07-07T19:13:16.934Z,5.97
2018-07-07T19:15:47.775Z,3.80
2018-07-07T19:18:16.189Z,5.13
2018-07-07T19:20:49.914Z,4.50
2018-07-07T19:23:23.570Z,3.27
2018-07-07T19:25:57.102Z,3.63
2018-07-07T19:28:25.205Z,4.40
2018-07-07T19:30:53.242Z,5.10
2018-07-07T19:33:26.946Z,5.23
2018-07-07T19:36:00.559Z,3.70
2018-07-07T19:38:28.619Z,3.47
2018-07-07T19:40:56.686Z,2.37
2018-07-07T19:43:24.941Z,3.10
2018-07-07T19:45:52.946Z,4.77
2018-07-07T19:48:21.109Z,4.60
2018-07-07T19:50:49.183Z,2.20
2018-07-07T19:53:17.335Z,2.73
2018-07-07T19:55:45.420Z,3.70
2018-07-07T19:58:13.488Z,2.33
2018-07-07T20:00:41.563Z,2.90
2018-07-07T20:03:09.735Z,3.63
2018-07-07T20:05:37.809Z,2.83
2018-07-07T20:08:05.898Z,2.37
2018-07-07T20:10:33.961Z,2.10
2018-07-07T20:13:02.036Z,3.13
2018-07-07T20:15:35.737Z,5.47
2018-07-07T20:18:06.808Z,2.80
2018-07-07T20:20:40.471Z,3.53
2018-07-07T20:23:09.880Z,4.07
2018-07-07T20:25:37.954Z,4.67
2018-07-07T20:28:11.653Z,6.23
2018-07-07T20:30:39.840Z,6.43
2018-07-07T20:33:08.410Z,4.53
2018-07-07T20:35:36.583Z,6.70
2018-07-07T20:38:04.646Z,4.37
2018-07-07T20:40:32.847Z,7.50
2018-07-07T20:43:00.923Z,8.63
2018-07-07T20:45:29.014Z,11.00
2018-07-07T20:47:57.308Z,7.07
2018-07-07T20:50:25.386Z,6.73
2018-07-07T20:52:53.457Z,8.63
2018-07-07T20:55:21.571Z,8.67
2018-07-07T20:57:49.653Z,9.10
2018-07-07T21:00:17.714Z,5.13
2018-07-07T21:02:45.809Z,9.07
2018-07-07T21:05:13.964Z,5.30
2018-07-07T21:07:42.143Z,4.80
2018-07-07T21:10:10.268Z,6.10
2018-07-07T21:12:38.362Z,8.97
2018-07-07T21:15:06.474Z,6.23
2018-07-07T21:17:34.543Z,6.03
2018-07-07T21:20:02.972Z,3.83
2018-07-07T21:22:31.095Z,5.93
2018-07-07T21:24:59.243Z,6.97
2018-07-07T21:27:29.082Z,4.00
2018-07-07T21:29:57.154Z,5.30
2018-07-07T21:32:25.311Z,3.27
2018-07-07T21:34:53.410Z,10.70
2018-07-07T21:37:21.504Z,2.97
2018-07-07T21:39:49.569Z,4.10
2018-07-07T21:42:17.664Z,3.43
2018-07-07T21:44:45.932Z,4.40
2018-07-07T21:47:14.117Z,6.53
2018-07-07T21:49:43.172Z,4.00
2018-07-07T21:52:11.586Z,5.73
2018-07-07T21:54:39.630Z,2.93
2018-07-07T21:57:07.959Z,3.87
2018-07-07T21:59:36.050Z,4.10
2018-07-07T22:02:09.712Z,4.37
2018-07-07T22:04:43.476Z,3.83
2018-07-07T22:07:17.023Z,4.53
2018-07-07T22:09:45.126Z,4.97
2018-07-07T22:12:13.214Z,3.60
2018-07-07T22:14:41.386Z,3.57
2018-07-07T22:17:09.537Z,3.20
2018-07-07T22:19:37.738Z,4.33
2018-07-07T22:22:06.931Z,2.30
2018-07-07T22:24:35.119Z,4.10
2018-07-07T22:27:04.591Z,2.40
2018-07-07T22:29:32.656Z,3.57
2018-07-07T22:32:03.021Z,3.00
2018-07-07T22:34:31.890Z,3.27
2018-07-07T22:37:00.098Z,2.40
2018-07-07T22:39:28.271Z,3.57
2018-07-07T22:42:01.855Z,2.97
2018-07-07T22:44:30.344Z,2.60
2018-07-07T22:46:58.806Z,2.63
2018-07-07T22:49:27.606Z,4.03
2018-07-07T22:51:55.928Z,2.13
2018-07-07T22:54:24.105Z,3.90
2018-07-07T22:56:52.162Z,2.53
2018-07-07T22:59:20.432Z,2.30
2018-07-07T23:01:49.122Z,3.70
2018-07-07T23:04:17.311Z,2.80
2018-07-07T23:06:46.146Z,3.40
2018-07-07T23:09:15.363Z,3.77
2018-07-07T23:11:44.052Z,2.80
2018-07-07T23:14:12.102Z,2.63
2018-07-07T23:16:40.382Z,4.10
2018-07-07T23:19:08.582Z,3.03
2018-07-07T23:21:36.789Z,2.97
2018-07-07T23:24:05.225Z,3.07
2018-07-07T23:26:33.422Z,3.43
2018-07-07T23:29:02.409Z,2.93
2018-07-07T23:31:30.474Z,3.03
2018-07-07T23:33:58.634Z,2.47
2018-07-07T23:36:26.961Z,3.20
2018-07-07T23:38:55.015Z,3.87
2018-07-07T23:41:23.167Z,3.70
2018-07-07T23:43:51.980Z,3.90
2018-07-07T23:46:20.004Z,3.63
2018-07-07T23:48:48.826Z,3.50
2018-07-07T23:51:16.968Z,2.10
2018-07-07T23:53:45.083Z,2.73
2018-07-07T23:56:13.183Z,2.73
2018-07-07T23:58:41.490Z,3.40
